createdAt,value
2018-03-01T00:01:10.552Z,102564.61
2018-03-01T00:03:38.225Z,102561.20
2018-03-01T00:06:05.861Z,102562.40
2018-03-01T00:08:33.582Z,102566.19
2018-03-01T00:11:01.213Z,102557.45
2018-03-01T00:13:28.880Z,102557.28
2018-03-01T00:15:56.512Z,102553.72
2018-03-01T00:18:24.181Z,102544.28
2018-03-01T00:20:51.823Z,102550.39
2018-03-01T00:23:19.501Z,102541.89
2018-03-01T00:25:47.149Z,102541.52
2018-03-01T00:28:14.815Z,102542.95
2018-03-01T00:30:42.455Z,102542.97
2018-03-01T00:33:10.208Z,102537.72
2018-03-01T00:35:37.939Z,102532.66
2018-03-01T00:38:05.612Z,102532.97
2018-03-01T00:40:33.234Z,102536.58
2018-03-01T00:43:00.943Z,102527.73
2018-03-01T00:45:28.585Z,102528.17
2018-03-01T00:47:56.261Z,102529.23
2018-03-01T00:50:23.900Z,102529.47
2018-03-01T00:52:51.569Z,102522.22
2018-03-01T00:55:19.197Z,102509.96
2018-03-01T00:57:46.885Z,102510.83
2018-03-01T01:00:14.675Z,102506.69
2018-03-01T01:02:42.306Z,102502.95
2018-03-01T01:05:10.084Z,102491.23
2018-03-01T01:07:37.708Z,102490.27
2018-03-01T01:10:05.380Z,102490.84
2018-03-01T01:12:32.999Z,102492.50
2018-03-01T01:15:00.814Z,102491.83
2018-03-01T01:17:28.460Z,102492.36
2018-03-01T01:19:56.154Z,102484.20
2018-03-01T01:22:23.793Z,102483.96
2018-03-01T01:24:51.474Z,102480.84
2018-03-01T01:27:19.106Z,102465.56
2018-03-01T01:29:46.781Z,102461.86
2018-03-01T01:32:14.545Z,102460.13
2018-03-01T01:34:42.223Z,102449.52
2018-03-01T01:37:09.860Z,102443.50
2018-03-01T01:39:37.631Z,102441.42
2018-03-01T01:42:05.276Z,102437.77
2018-03-01T01:44:32.955Z,102435.64
2018-03-01T01:47:00.599Z,102437.11
2018-03-01T01:49:28.282Z,102430.42
2018-03-01T01:51:55.992Z,102424.98
2018-03-01T01:54:23.656Z,102424.64
2018-03-01T01:56:51.295Z,102422.13
2018-03-01T01:59:18.981Z,102408.68
2018-03-01T02:01:46.606Z,102413.60
2018-03-01T02:04:14.452Z,102402.23
2018-03-01T02:06:42.101Z,102408.51
2018-03-01T02:09:09.776Z,102406.70
2018-03-01T02:11:37.405Z,102405.70
2018-03-01T02:14:05.083Z,102399.89
2018-03-01T02:16:32.713Z,102398.83
2018-03-01T02:19:00.376Z,102390.36
2018-03-01T02:21:28.015Z,102381.28
2018-03-01T02:23:55.812Z,102376.17
2018-03-01T02:26:23.550Z,102374.17
2018-03-01T02:28:51.228Z,102366.93
2018-03-01T02:31:18.873Z,102361.72
2018-03-01T02:33:46.550Z,102362.75
2018-03-01T02:39:07.429Z,102343.24
2018-03-01T02:41:35.096Z,102339.67
2018-03-01T02:44:02.770Z,102329.75
2018-03-01T02:46:30.406Z,102324.08
2018-03-01T02:48:58.083Z,102312.55
2018-03-01T02:51:25.708Z,102320.63
2018-03-01T02:53:53.386Z,102316.34
2018-03-01T02:56:21.101Z,102316.95
2018-03-01T02:58:48.725Z,102313.67
2018-03-01T03:01:16.410Z,102312.59
2018-03-01T03:03:44.399Z,102317.47
2018-03-01T03:06:12.072Z,102313.77
2018-03-01T03:08:39.715Z,102300.20
2018-03-01T03:11:07.389Z,102310.95
2018-03-01T03:13:35.016Z,102314.13
2018-03-01T03:16:02.693Z,102317.50
2018-03-01T03:18:30.338Z,102322.13
2018-03-01T03:20:58.077Z,102321.15
2018-03-01T03:23:25.707Z,102318.25
2018-03-01T03:25:53.377Z,102320.14
2018-03-01T03:28:21.006Z,102324.39
2018-03-01T03:30:48.695Z,102325.91
2018-03-01T03:33:16.458Z,102324.10
2018-03-01T03:35:44.133Z,102332.07
2018-03-01T03:38:11.909Z,102315.44
2018-03-01T03:40:39.587Z,102316.10
2018-03-01T03:43:07.217Z,102318.81
2018-03-01T03:45:34.885Z,102311.89
2018-03-01T03:48:02.513Z,102314.58
2018-03-01T03:50:30.269Z,102312.51
2018-03-01T03:52:57.905Z,102306.88
2018-03-01T03:55:25.582Z,102312.32
2018-03-01T03:57:53.295Z,102313.45
2018-03-01T04:00:20.979Z,102311.36
2018-03-01T04:02:48.620Z,102313.25
2018-03-01T04:05:16.372Z,102316.25
2018-03-01T04:07:43.996Z,102312.61
2018-03-01T04:10:11.679Z,102300.65
2018-03-01T04:12:39.303Z,102299.05
2018-03-01T04:15:07.103Z,102292.72
2018-03-01T04:17:34.841Z,102296.95
2018-03-01T04:20:02.540Z,102295.92
2018-03-01T04:22:30.306Z,102293.12
2018-03-01T04:24:57.970Z,102290.23
2018-03-01T04:27:25.626Z,102287.66
2018-03-01T04:29:53.326Z,102276.05
2018-03-01T04:32:20.974Z,102282.27
2018-03-01T04:34:48.652Z,102279.27
2018-03-01T04:37:16.286Z,102272.28
2018-03-01T04:39:43.919Z,102274.77
2018-03-01T04:42:11.591Z,102268.06
2018-03-01T04:44:39.221Z,102261.23
2018-03-01T04:47:06.896Z,102263.53
2018-03-01T04:49:34.605Z,102259.73
2018-03-01T04:52:02.279Z,102259.69
2018-03-01T04:54:29.921Z,102261.41
2018-03-01T04:56:57.652Z,102263.14
2018-03-01T04:59:25.341Z,102264.41
2018-03-01T05:01:53.162Z,102264.11
2018-03-01T05:04:20.803Z,102260.84
2018-03-01T05:06:48.514Z,102258.45
2018-03-01T05:09:16.305Z,102255.86
2018-03-01T05:11:43.982Z,102249.73
2018-03-01T05:14:11.608Z,102254.77
2018-03-01T05:16:39.311Z,102247.42
2018-03-01T05:19:06.942Z,102249.55
2018-03-01T05:21:34.729Z,102245.97
2018-03-01T05:24:02.352Z,102241.54
2018-03-01T05:26:30.047Z,102237.53
2018-03-01T05:28:57.702Z,102238.39
2018-03-01T05:31:25.395Z,102236.75
2018-03-01T05:33:53.063Z,102226.98
2018-03-01T05:36:20.730Z,102229.14
2018-03-01T05:38:48.385Z,102222.50
2018-03-01T05:41:16.069Z,102217.42
2018-03-01T05:43:43.742Z,102219.01
2018-03-01T05:46:11.412Z,102218.56
2018-03-01T05:48:39.072Z,102216.17
2018-03-01T05:51:06.797Z,102214.18
2018-03-01T05:53:34.440Z,102216.84
2018-03-01T05:56:02.171Z,102227.55
2018-03-01T05:58:30.184Z,102219.10
2018-03-01T06:00:57.991Z,102221.62
2018-03-01T06:03:25.696Z,102221.66
2018-03-01T06:05:53.551Z,102227.27
2018-03-01T06:08:21.267Z,102222.25
2018-03-01T06:10:49.014Z,102216.77
2018-03-01T06:13:16.705Z,102217.85
2018-03-01T06:15:44.437Z,102207.38
2018-03-01T06:18:12.174Z,102206.81
2018-03-01T06:20:39.869Z,102199.96
2018-03-01T06:23:07.662Z,102201.09
2018-03-01T06:25:35.377Z,102195.94
2018-03-01T06:28:03.175Z,102189.48
2018-03-01T06:30:30.911Z,102189.14
2018-03-01T06:32:58.671Z,102190.69
2018-03-01T06:35:26.320Z,102189.80
2018-03-01T06:37:54.102Z,102180.42
2018-03-01T06:40:21.798Z,102176.60
2018-03-01T06:42:49.541Z,102179.13
2018-03-01T06:45:17.246Z,102171.94
2018-03-01T06:47:45.002Z,102165.70
2018-03-01T06:50:12.768Z,102162.77
2018-03-01T06:52:40.496Z,102152.18
2018-03-01T06:55:08.211Z,102153.41
2018-03-01T06:57:35.956Z,102150.23
2018-03-01T07:00:03.772Z,102148.21
2018-03-01T07:05:22.081Z,102132.48
2018-03-01T07:07:50.501Z,102123.39
2018-03-01T07:10:18.391Z,102118.14
2018-03-01T07:12:48.325Z,102112.52
2018-03-01T07:15:16.012Z,102108.02
2018-03-01T07:17:46.332Z,102106.39
2018-03-01T07:20:15.007Z,102098.98
2018-03-01T07:22:44.077Z,102101.77
2018-03-01T07:25:14.932Z,102091.56
2018-03-01T07:27:42.677Z,102078.88
2018-03-01T07:30:11.993Z,102080.56
2018-03-01T07:32:41.092Z,102081.72
2018-03-01T07:35:10.116Z,102082.42
2018-03-01T07:37:37.984Z,102073.95
2018-03-01T07:40:05.934Z,102075.58
2018-03-01T07:42:33.894Z,102070.91
2018-03-01T07:45:02.451Z,102075.41
2018-03-01T07:47:31.822Z,102071.55
2018-03-01T07:50:01.733Z,102069.12
2018-03-01T07:52:29.550Z,102064.58
2018-03-01T07:54:58.261Z,102057.31
2018-03-01T07:57:26.554Z,102068.64
2018-03-01T07:59:54.474Z,102060.22
2018-03-01T08:02:25.855Z,102066.20
2018-03-01T08:04:54.483Z,102065.66
2018-03-01T08:07:24.720Z,102062.07
2018-03-01T08:09:52.831Z,102056.30
2018-03-01T08:12:20.634Z,102059.69
2018-03-01T08:14:51.962Z,102054.45
2018-03-01T08:17:19.947Z,102045.29
2018-03-01T08:19:47.975Z,102041.13
2018-03-01T08:22:17.069Z,102044.06
2018-03-01T08:24:46.686Z,102041.08
2018-03-01T08:27:16.281Z,102040.09
2018-03-01T08:29:46.322Z,102035.86
2018-03-01T08:32:15.477Z,102033.22
2018-03-01T08:34:44.354Z,102029.58
2018-03-01T08:37:12.421Z,102034.91
2018-03-01T08:39:41.492Z,102029.25
2018-03-01T08:42:10.283Z,102023.58
2018-03-01T08:44:38.714Z,102017.90
2018-03-01T08:47:06.970Z,102010.49
2018-03-01T08:49:35.317Z,102009.03
2018-03-01T08:52:03.477Z,102003.97
2018-03-01T08:54:33.022Z,101996.13
2018-03-01T08:57:01.384Z,101999.15
2018-03-01T08:59:29.143Z,102010.03
2018-03-01T09:02:00.681Z,102007.05
2018-03-01T09:04:28.455Z,102004.27
2018-03-01T09:06:56.508Z,101992.64
2018-03-01T09:09:24.619Z,101992.98
2018-03-01T09:11:54.230Z,101988.53
2018-03-01T09:14:22.652Z,101980.40
2018-03-01T09:16:51.527Z,101982.09
2018-03-01T09:19:20.602Z,101984.28
2018-03-01T09:21:54.039Z,101993.59
2018-03-01T09:24:22.587Z,101983.97
2018-03-01T09:26:52.912Z,101980.11
2018-03-01T09:29:22.659Z,101979.06
2018-03-01T09:31:51.087Z,101982.28
2018-03-01T09:34:19.668Z,101983.25
2018-03-01T09:36:50.289Z,101975.77
2018-03-01T09:39:20.214Z,101958.16
2018-03-01T09:41:50.774Z,101950.92
2018-03-01T09:44:18.825Z,101961.08
2018-03-01T09:46:47.490Z,101950.34
2018-03-01T09:49:15.359Z,101944.90
2018-03-01T09:51:44.041Z,101950.09
2018-03-01T09:54:12.710Z,101956.95
2018-03-01T09:56:41.365Z,101948.95
2018-03-01T09:59:12.777Z,101927.30
2018-03-01T10:01:41.984Z,101927.63
2018-03-01T10:04:11.332Z,101927.19
2018-03-01T10:06:40.223Z,101918.48
2018-03-01T10:09:09.327Z,101921.94
2018-03-01T10:11:38.481Z,101922.61
2018-03-01T10:14:07.111Z,101913.27
2018-03-01T10:16:36.645Z,101908.03
2018-03-01T10:19:05.962Z,101906.78
2018-03-01T10:21:35.465Z,101909.30
2018-03-01T10:24:04.374Z,101916.40
2018-03-01T10:26:33.039Z,101898.27
2018-03-01T10:29:01.791Z,101896.45
2018-03-01T10:31:32.147Z,101890.70
2018-03-01T10:34:00.550Z,101884.84
2018-03-01T10:36:28.978Z,101879.87
2018-03-01T10:38:57.834Z,101873.98
2018-03-01T10:41:27.054Z,101890.11
2018-03-01T10:43:55.131Z,101877.66
2018-03-01T10:46:22.890Z,101872.56
2018-03-01T10:48:51.752Z,101864.91
2018-03-01T10:51:19.725Z,101853.67
2018-03-01T10:53:48.488Z,101849.92
2018-03-01T10:56:17.442Z,101847.30
2018-03-01T10:58:45.292Z,101842.99
2018-03-01T11:01:19.484Z,101854.46
2018-03-01T11:03:47.492Z,101839.52
2018-03-01T11:06:15.677Z,101826.00
2018-03-01T11:08:45.450Z,101822.70
2018-03-01T11:11:14.297Z,101828.61
2018-03-01T11:13:42.169Z,101825.18
2018-03-01T11:16:11.561Z,101827.77
2018-03-01T11:18:40.039Z,101819.02
2018-03-01T11:21:08.214Z,101825.25
2018-03-01T11:23:36.104Z,101820.41
2018-03-01T11:26:05.187Z,101813.09
2018-03-01T11:28:34.049Z,101814.97
2018-03-01T11:31:03.946Z,101826.20
2018-03-01T11:33:33.057Z,101819.93
2018-03-01T11:36:01.870Z,101814.29
2018-03-01T11:38:30.258Z,101812.03
2018-03-01T11:40:59.694Z,101805.06
2018-03-01T11:43:28.904Z,101789.45
2018-03-01T11:45:57.538Z,101779.61
2018-03-01T11:48:25.694Z,101771.50
2018-03-01T11:50:55.629Z,101776.25
2018-03-01T11:53:25.658Z,101759.52
2018-03-01T11:55:53.942Z,101758.23
2018-03-01T11:58:23.703Z,101752.33
2018-03-01T12:00:52.784Z,101754.17
2018-03-01T12:03:22.007Z,101746.80
2018-03-01T12:05:50.854Z,101753.48
2018-03-01T12:08:19.931Z,101748.95
2018-03-01T12:10:49.886Z,101740.04
2018-03-01T12:13:18.161Z,101735.05
2018-03-01T12:15:48.233Z,101729.34
2018-03-01T12:18:16.116Z,101747.72
2018-03-01T12:20:45.285Z,101728.03
2018-03-01T12:23:14.433Z,101731.14
2018-03-01T12:25:43.161Z,101718.05
2018-03-01T12:28:11.057Z,101722.03
2018-03-01T12:30:39.290Z,101728.73
2018-03-01T12:33:11.700Z,101713.67
2018-03-01T12:35:40.900Z,101713.12
2018-03-01T12:38:09.572Z,101727.39
2018-03-01T12:40:40.987Z,101719.53
2018-03-01T12:43:09.199Z,101724.77
2018-03-01T12:45:38.429Z,101707.80
2018-03-01T12:48:06.566Z,101707.66
2018-03-01T12:50:34.483Z,101702.01
2018-03-01T12:53:03.306Z,101695.62
2018-03-01T12:55:32.155Z,101691.91
2018-03-01T12:58:00.819Z,101689.02
2018-03-01T13:00:30.419Z,101677.98
2018-03-01T13:02:58.763Z,101678.73
2018-03-01T13:05:29.149Z,101675.05
2018-03-01T13:07:59.197Z,101679.63
2018-03-01T13:10:33.341Z,101672.80
2018-03-01T13:13:01.907Z,101673.71
2018-03-01T13:15:31.463Z,101665.98
2018-03-01T13:18:01.961Z,101659.40
2018-03-01T13:20:30.649Z,101652.81
2018-03-01T13:22:59.799Z,101659.16
2018-03-01T13:25:30.458Z,101635.60
2018-03-01T13:28:02.595Z,101649.31
2018-03-01T13:30:41.104Z,101628.06
2018-03-01T13:33:15.788Z,101629.02
2018-03-01T13:35:44.334Z,101633.58
2018-03-01T13:38:12.397Z,101638.64
2018-03-01T13:40:42.543Z,101606.06
2018-03-01T13:43:30.155Z,101601.45
2018-03-01T13:46:02.147Z,101607.62
2018-03-01T13:48:29.999Z,101611.53
2018-03-01T13:50:58.735Z,101597.72
2018-03-01T13:53:28.062Z,101594.77
2018-03-01T13:55:58.006Z,101590.84
2018-03-01T13:58:26.998Z,101587.83
2018-03-01T14:00:56.686Z,101593.05
2018-03-01T14:03:28.442Z,101592.27
2018-03-01T14:09:04.191Z,101583.63
2018-03-01T14:11:31.956Z,101572.44
2018-03-01T14:14:04.259Z,101564.41
2018-03-01T14:16:32.051Z,101571.23
2018-03-01T14:19:15.559Z,101573.02
2018-03-01T14:21:49.886Z,101559.31
2018-03-01T14:24:23.112Z,101564.78
2018-03-01T14:26:54.549Z,101573.80
2018-03-01T14:32:22.247Z,101563.28
2018-03-01T14:34:49.979Z,101572.20
2018-03-01T14:37:17.682Z,101558.17
2018-03-01T14:39:45.366Z,101568.87
2018-03-01T14:42:13.167Z,101577.62
2018-03-01T14:44:40.909Z,101561.30
2018-03-01T14:47:08.679Z,101564.44
2018-03-01T14:49:36.361Z,101562.98
2018-03-01T14:52:04.067Z,101562.46
2018-03-01T14:54:31.732Z,101564.60
2018-03-01T14:56:59.446Z,101559.24
2018-03-01T14:59:27.136Z,101565.36
2018-03-01T15:01:54.875Z,101553.91
2018-03-01T15:04:22.593Z,101532.02
2018-03-01T15:06:50.295Z,101539.13
2018-03-01T15:09:17.959Z,101537.12
2018-03-01T15:11:45.747Z,101540.08
2018-03-01T15:14:13.426Z,101537.59
2018-03-01T15:16:41.227Z,101535.46
2018-03-01T15:19:08.894Z,101533.31
2018-03-01T15:21:36.592Z,101535.24
2018-03-01T15:24:04.276Z,101532.66
2018-03-01T15:26:32.026Z,101522.69
2018-03-01T15:28:59.694Z,101525.60
2018-03-01T15:31:27.458Z,101512.43
2018-03-01T15:33:55.150Z,101512.84
2018-03-01T15:36:22.840Z,101506.78
2018-03-01T15:38:50.507Z,101506.27
2018-03-01T15:41:18.247Z,101511.92
2018-03-01T15:43:45.948Z,101498.63
2018-03-01T15:46:13.817Z,101501.84
2018-03-01T15:48:41.517Z,101492.55
2018-03-01T15:51:09.214Z,101494.02
2018-03-01T15:53:36.908Z,101477.06
2018-03-01T15:56:04.570Z,101485.86
2018-03-01T15:58:32.237Z,101473.92
2018-03-01T16:00:59.914Z,101492.78
2018-03-01T16:03:27.594Z,101498.13
2018-03-01T16:05:55.237Z,101465.34
2018-03-01T16:08:22.941Z,101486.70
2018-03-01T16:10:50.589Z,101487.44
2018-03-01T16:13:18.290Z,101484.73
2018-03-01T16:15:59.621Z,101478.55
2018-03-01T16:18:46.256Z,101481.67
2018-03-01T16:21:28.306Z,101475.61
2018-03-01T16:23:56.012Z,101475.92
2018-03-01T16:26:23.755Z,101479.27
2018-03-01T16:28:51.463Z,101474.55
2018-03-01T16:31:19.164Z,101469.02
2018-03-01T16:33:46.858Z,101471.53
2018-03-01T16:36:14.581Z,101467.86
2018-03-01T16:38:42.282Z,101460.22
2018-03-01T16:41:10.046Z,101464.29
2018-03-01T16:43:37.796Z,101464.63
2018-03-01T16:46:05.447Z,101476.34
2018-03-01T16:48:33.134Z,101469.75
2018-03-01T16:51:00.842Z,101466.36
2018-03-01T16:53:28.671Z,101477.66
2018-03-01T16:55:56.330Z,101480.33
2018-03-01T16:58:24.202Z,101481.35
2018-03-01T17:00:52.011Z,101461.28
2018-03-01T17:03:19.839Z,101480.11
2018-03-01T17:05:47.571Z,101482.19
2018-03-01T17:08:15.515Z,101491.87
2018-03-01T17:10:43.242Z,101485.91
2018-03-01T17:13:10.970Z,101495.67
2018-03-01T17:15:38.767Z,101491.17
2018-03-01T17:18:06.419Z,101497.87
2018-03-01T17:20:34.163Z,101482.28
2018-03-01T17:23:01.876Z,101495.91
2018-03-01T17:25:29.660Z,101492.33
2018-03-01T17:27:57.347Z,101490.38
2018-03-01T17:30:25.020Z,101482.43
2018-03-01T17:32:52.748Z,101479.63
2018-03-01T17:35:20.398Z,101473.91
2018-03-01T17:37:48.081Z,101479.71
2018-03-01T17:40:15.770Z,101474.36
2018-03-01T17:42:43.487Z,101474.55
2018-03-01T17:45:11.198Z,101457.81
2018-03-01T17:47:38.960Z,101464.73
2018-03-01T17:50:06.635Z,101471.13
2018-03-01T17:52:34.321Z,101464.62
2018-03-01T17:55:01.964Z,101468.31
2018-03-01T17:57:29.927Z,101464.14
2018-03-01T17:59:57.572Z,101467.99
2018-03-01T18:02:25.261Z,101453.22
2018-03-01T18:04:52.915Z,101459.58
2018-03-01T18:07:20.563Z,101458.09
2018-03-01T18:09:48.237Z,101466.66
2018-03-01T18:12:15.880Z,101461.72
2018-03-01T18:14:43.588Z,101456.94
2018-03-01T18:17:11.252Z,101452.35
2018-03-01T18:19:38.934Z,101456.75
2018-03-01T18:22:08.027Z,101448.66
2018-03-01T18:24:36.397Z,101453.75
2018-03-01T18:27:05.033Z,101459.38
2018-03-01T18:29:33.793Z,101453.80
2018-03-01T18:32:02.293Z,101447.56
2018-03-01T18:34:30.716Z,101448.75
2018-03-01T18:36:58.798Z,101445.32
2018-03-01T18:39:30.065Z,101436.22
2018-03-01T18:41:58.187Z,101432.40
2018-03-01T18:44:26.738Z,101430.88
2018-03-01T18:46:54.915Z,101437.05
2018-03-01T18:49:22.641Z,101439.02
2018-03-01T18:51:50.316Z,101438.20
2018-03-01T18:54:18.128Z,101441.67
2018-03-01T18:56:45.779Z,101444.04
2018-03-01T18:59:13.483Z,101437.02
2018-03-01T19:01:41.128Z,101433.64
2018-03-01T19:04:08.846Z,101434.34
2018-03-01T19:06:36.522Z,101435.70
2018-03-01T19:09:04.246Z,101430.90
2018-03-01T19:11:31.899Z,101422.38
2018-03-01T19:13:59.596Z,101415.66
2018-03-01T19:16:27.267Z,101409.53
2018-03-01T19:18:54.990Z,101422.70
2018-03-01T19:21:22.689Z,101408.42
2018-03-01T19:23:50.379Z,101408.98
2018-03-01T19:26:18.077Z,101415.25
2018-03-01T19:28:45.769Z,101407.33
2018-03-01T19:31:13.425Z,101412.80
2018-03-01T19:33:41.136Z,101408.42
2018-03-01T19:36:08.794Z,101410.33
2018-03-01T19:38:36.498Z,101406.70
2018-03-01T19:41:04.152Z,101406.84
2018-03-01T19:43:31.858Z,101401.95
2018-03-01T19:45:59.475Z,101402.83
2018-03-01T19:48:27.138Z,101402.41
2018-03-01T19:50:54.829Z,101401.02
2018-03-01T19:53:22.564Z,101401.25
2018-03-01T19:55:50.219Z,101409.53
2018-03-01T19:58:17.851Z,101404.31
2018-03-01T20:00:45.529Z,101406.88
2018-03-01T20:03:13.209Z,101400.56
2018-03-01T20:05:40.920Z,101394.11
2018-03-01T20:08:08.555Z,101389.14
2018-03-01T20:10:36.260Z,101387.98
2018-03-01T20:13:03.941Z,101395.19
2018-03-01T20:15:31.611Z,101396.11
2018-03-01T20:17:59.280Z,101395.80
2018-03-01T20:20:26.976Z,101398.00
2018-03-01T20:22:54.638Z,101391.64
2018-03-01T20:25:22.346Z,101390.30
2018-03-01T20:27:49.990Z,101390.59
2018-03-01T20:30:17.684Z,101387.66
2018-03-01T20:32:45.340Z,101384.73
2018-03-01T20:35:13.020Z,101382.09
2018-03-01T20:37:40.681Z,101389.70
2018-03-01T20:40:08.389Z,101385.73
2018-03-01T20:42:36.082Z,101378.05
2018-03-01T20:45:03.823Z,101373.51
2018-03-01T20:47:31.486Z,101378.45
2018-03-01T20:49:59.349Z,101373.95
2018-03-01T20:52:27.020Z,101367.67
2018-03-01T20:54:54.747Z,101362.89
2018-03-01T20:57:22.392Z,101365.63
2018-03-01T20:59:50.069Z,101367.31
2018-03-01T21:02:17.703Z,101363.14
2018-03-01T21:04:45.379Z,101359.81
2018-03-01T21:07:13.051Z,101358.54
2018-03-01T21:09:40.720Z,101357.13
2018-03-01T21:12:08.386Z,101350.95
2018-03-01T21:14:36.089Z,101350.39
2018-03-01T21:17:03.782Z,101347.38
2018-03-01T21:19:31.449Z,101338.39
2018-03-01T21:21:59.077Z,101339.62
2018-03-01T21:24:26.752Z,101342.20
2018-03-01T21:26:54.442Z,101343.61
2018-03-01T21:29:22.142Z,101339.96
2018-03-01T21:31:49.765Z,101339.19
2018-03-01T21:34:17.491Z,101325.61
2018-03-01T21:36:45.172Z,101325.48
2018-03-01T21:39:12.796Z,101325.15
2018-03-01T21:41:40.472Z,101318.69
2018-03-01T21:44:08.157Z,101319.35
2018-03-01T21:46:35.835Z,101320.34
2018-03-01T21:49:03.483Z,101320.07
2018-03-01T21:51:31.146Z,101312.59
2018-03-01T21:53:58.793Z,101308.68
2018-03-01T21:56:26.471Z,101302.75
2018-03-01T21:58:54.128Z,101292.53
2018-03-01T22:01:21.820Z,101305.06
2018-03-01T22:03:49.429Z,101300.70
2018-03-01T22:06:17.211Z,101299.04
2018-03-01T22:08:44.875Z,101298.43
2018-03-01T22:11:12.572Z,101299.91
2018-03-01T22:13:40.209Z,101292.53
2018-03-01T22:16:07.900Z,101295.84
2018-03-01T22:18:35.539Z,101292.86
2018-03-01T22:21:03.227Z,101292.32
2018-03-01T22:23:30.888Z,101284.36
2018-03-01T22:25:58.580Z,101278.63
2018-03-01T22:28:26.253Z,101272.31
2018-03-01T22:30:53.947Z,101273.16
2018-03-01T22:33:21.569Z,101272.42
2018-03-01T22:35:49.291Z,101271.58
2018-03-01T22:38:16.918Z,101270.30
2018-03-01T22:40:44.663Z,101276.52
2018-03-01T22:43:12.318Z,101269.14
2018-03-01T22:45:39.992Z,101271.93
2018-03-01T22:48:07.637Z,101270.52
2018-03-01T22:50:35.328Z,101270.23
2018-03-01T22:53:02.989Z,101264.54
2018-03-01T22:55:30.655Z,101258.15
2018-03-01T22:57:58.289Z,101259.47
2018-03-01T23:00:37.889Z,101259.69
2018-03-01T23:03:05.590Z,101257.78
2018-03-01T23:05:33.335Z,101250.53
2018-03-01T23:08:01.021Z,101258.45
2018-03-01T23:10:28.689Z,101254.95
2018-03-01T23:12:56.353Z,101250.94
2018-03-01T23:15:24.016Z,101255.25
2018-03-01T23:17:51.680Z,101255.97
2018-03-01T23:20:19.409Z,101254.88
2018-03-01T23:22:47.048Z,101260.67
2018-03-01T23:25:14.728Z,101260.20
2018-03-01T23:27:42.431Z,101260.41
2018-03-01T23:30:10.141Z,101263.55
2018-03-01T23:32:37.822Z,101255.80
2018-03-01T23:35:05.500Z,101248.44
2018-03-01T23:37:33.167Z,101249.57
2018-03-01T23:40:00.809Z,101252.50
2018-03-01T23:42:28.629Z,101252.31
2018-03-01T23:44:56.261Z,101245.14
2018-03-01T23:47:23.986Z,101243.54
2018-03-01T23:49:51.631Z,101238.15
2018-03-01T23:52:19.314Z,101232.06
2018-03-01T23:54:46.971Z,101238.59
2018-03-01T23:57:14.646Z,101234.05
2018-03-01T23:59:42.274Z,101229.36
